Time;durP1;ratioP1;P1;durP2;ratioP2;P2;SDS_P1;SDS_P2;PMS_P1;PMS_P2;Temp;Humidity;BMP_temperature;BMP_pressure;BME280_temperature;BME280_humidity;BME280_pressure;Samples;Min_cycle;Max_cycle;Signal;HPM_P1;HPM_P2
2024/01/25 00:02:08;;;;;;;25.77;4.28;;;7.80;99.90;;;;;;5016646;28;20084;-78
2024/01/25 00:04:34;;;;;;;27.98;3.53;;;7.80;99.90;;;;;;5010352;28;20116;-77
2024/01/25 00:07:00;;;;;;;25.08;4.65;;;7.70;99.90;;;;;;5015698;28;20037;-77
2024/01/25 00:09:25;;;;;;;20.38;4.63;;;7.80;99.90;;;;;;5032986;28;20042;-78
2024/01/25 00:11:51;;;;;;;29.88;4.47;;;7.80;99.90;;;;;;5016195;28;20048;-78
2024/01/25 00:14:16;;;;;;;26.85;4.60;;;7.70;99.90;;;;;;5030382;28;20045;-77
2024/01/25 00:16:42;;;;;;;26.73;4.40;;;7.70;99.90;;;;;;5032515;28;20041;-77
2024/01/25 00:19:08;;;;;;;22.10;5.38;;;7.70;99.90;;;;;;5024791;28;20048;-77
2024/01/25 00:21:33;;;;;;;28.15;5.20;;;7.70;99.90;;;;;;5012869;28;20041;-77
2024/01/25 00:23:59;;;;;;;23.25;4.03;;;7.70;99.90;;;;;;5016445;28;20594;-77
2024/01/25 00:26:25;;;;;;;20.15;5.20;;;7.60;99.90;;;;;;5023651;28;20042;-77
2024/01/25 00:28:50;;;;;;;21.45;4.30;;;7.60;99.90;;;;;;5040643;28;20037;-77
2024/01/25 00:31:16;;;;;;;36.08;6.38;;;7.60;99.90;;;;;;5014953;28;20520;-77
2024/01/25 00:33:41;;;;;;;23.45;4.72;;;7.60;99.90;;;;;;5009501;28;20033;-77
2024/01/25 00:36:08;;;;;;;26.13;4.10;;;7.50;99.90;;;;;;5031443;28;20037;-77
2024/01/25 00:38:34;;;;;;;23.30;4.57;;;7.40;99.90;;;;;;5015445;28;20037;-77
2024/01/25 00:41:00;;;;;;;23.77;3.22;;;7.40;99.90;;;;;;5015787;28;20048;-77
2024/01/25 00:43:26;;;;;;;27.23;4.18;;;7.40;99.90;;;;;;5029881;28;21019;-77
2024/01/25 00:45:52;;;;;;;20.63;4.47;;;7.30;99.90;;;;;;5029461;28;20051;-77
2024/01/25 00:48:18;;;;;;;23.92;3.58;;;7.30;99.90;;;;;;5014820;28;20041;-77
2024/01/25 00:50:44;;;;;;;19.63;4.97;;;7.30;99.90;;;;;;5015567;28;20387;-77
2024/01/25 00:53:10;;;;;;;21.80;4.65;;;7.40;99.90;;;;;;5031705;28;20469;-77
2024/01/25 00:55:36;;;;;;;27.17;4.30;;;7.30;99.90;;;;;;5005710;28;20073;-77
2024/01/25 00:58:02;;;;;;;26.80;4.25;;;7.30;99.90;;;;;;5032156;28;20033;-77
2024/01/25 01:00:28;;;;;;;20.83;4.30;;;7.30;99.90;;;;;;5031630;28;20395;-77
2024/01/25 01:02:54;;;;;;;28.40;5.13;;;7.30;99.90;;;;;;5031864;28;20044;-77
2024/01/25 01:05:20;;;;;;;22.08;3.63;;;7.30;99.90;;;;;;5012910;28;20056;-77
2024/01/25 01:07:46;;;;;;;28.13;4.75;;;7.20;99.90;;;;;;5031787;28;20045;-77
2024/01/25 01:10:13;;;;;;;28.63;4.93;;;7.10;99.90;;;;;;5031430;28;20041;-77
2024/01/25 01:12:39;;;;;;;26.85;4.28;;;7.20;99.90;;;;;;5031719;28;20510;-77
2024/01/25 01:15:05;;;;;;;28.58;4.03;;;7.10;99.90;;;;;;5010430;28;20048;-77
2024/01/25 01:17:30;;;;;;;23.48;3.72;;;7.00;99.90;;;;;;5031812;28;20042;-78
2024/01/25 01:19:56;;;;;;;27.42;4.40;;;7.00;99.90;;;;;;5015349;28;20414;-77
2024/01/25 01:22:21;;;;;;;28.27;4.53;;;7.10;99.90;;;;;;5032064;28;20048;-77
2024/01/25 01:24:47;;;;;;;23.83;3.45;;;7.00;99.90;;;;;;5029495;28;20054;-77
2024/01/25 01:27:13;;;;;;;28.15;4.25;;;7.10;99.90;;;;;;5014998;28;20052;-77
2024/01/25 01:29:39;;;;;;;23.83;4.63;;;7.00;99.90;;;;;;5014309;28;20049;-77
2024/01/25 01:32:04;;;;;;;30.17;4.03;;;6.90;99.90;;;;;;5031517;28;20034;-78
2024/01/25 01:34:30;;;;;;;26.92;4.80;;;7.00;99.90;;;;;;5031840;28;20041;-77
2024/01/25 01:36:56;;;;;;;23.65;4.45;;;6.90;99.90;;;;;;5012935;28;20041;-77
2024/01/25 01:39:22;;;;;;;27.05;4.57;;;6.90;99.90;;;;;;5032640;28;20033;-78
2024/01/25 01:41:48;;;;;;;23.85;3.85;;;6.90;99.90;;;;;;5035391;28;20041;-77
2024/01/25 01:44:14;;;;;;;30.50;4.40;;;6.90;99.90;;;;;;5035185;28;20045;-77
2024/01/25 01:46:41;;;;;;;26.08;4.07;;;6.90;99.90;;;;;;5033449;28;20041;-77
2024/01/25 01:49:09;;;;;;;23.60;4.18;;;6.80;99.90;;;;;;5018961;28;20136;-78
2024/01/25 01:51:35;;;;;;;24.77;3.65;;;6.80;99.90;;;;;;5018460;28;20128;-78
2024/01/25 01:54:02;;;;;;;26.70;4.60;;;6.70;99.90;;;;;;5011311;28;20125;-77
2024/01/25 01:56:29;;;;;;;26.50;4.03;;;6.80;99.90;;;;;;5012238;28;20037;-77
2024/01/25 01:59:04;;;;;;;28.40;5.32;;;6.70;99.90;;;;;;5015067;28;20514;-77
2024/01/25 02:01:29;;;;;;;23.77;4.90;;;6.70;99.90;;;;;;5034841;28;20486;-77
2024/01/25 02:03:55;;;;;;;24.75;4.60;;;6.70;99.90;;;;;;5017878;28;20095;-77
2024/01/25 02:06:23;;;;;;;25.80;4.45;;;6.60;99.90;;;;;;5015875;28;20045;-77
2024/01/25 02:08:50;;;;;;;26.83;4.00;;;6.60;99.90;;;;;;5002459;28;20149;-77
2024/01/25 02:11:17;;;;;;;23.10;4.85;;;6.60;99.90;;;;;;5034920;28;20405;-77
2024/01/25 02:13:42;;;;;;;25.65;5.07;;;6.50;99.90;;;;;;5017708;28;20033;-77
2024/01/25 02:16:09;;;;;;;31.13;4.55;;;6.60;99.90;;;;;;5017675;28;20041;-77
2024/01/25 02:18:34;;;;;;;26.83;4.82;;;6.50;99.90;;;;;;5032318;28;20048;-77
2024/01/25 02:21:00;;;;;;;29.35;4.40;;;6.50;99.90;;;;;;5018224;28;20132;-77
2024/01/25 02:23:26;;;;;;;26.10;4.28;;;6.50;99.90;;;;;;5034316;28;20033;-77
2024/01/25 02:25:52;;;;;;;23.52;4.28;;;6.50;99.90;;;;;;5033837;28;20124;-78
2024/01/25 02:28:17;;;;;;;27.88;5.45;;;6.50;99.90;;;;;;5010552;28;20169;-78
2024/01/25 02:30:43;;;;;;;29.23;4.82;;;6.50;99.90;;;;;;5029742;28;20482;-78
2024/01/25 02:33:09;;;;;;;27.25;4.70;;;6.40;99.90;;;;;;5003049;28;20703;-78
2024/01/25 02:35:34;;;;;;;25.45;4.32;;;6.40;99.90;;;;;;4994997;28;20561;-77
2024/01/25 02:38:00;;;;;;;29.88;4.65;;;6.40;99.90;;;;;;5019856;28;20029;-78
2024/01/25 02:40:26;;;;;;;34.75;5.43;;;6.30;99.90;;;;;;5011959;28;20060;-77
2024/01/25 02:42:51;;;;;;;28.17;4.45;;;6.40;99.90;;;;;;4997279;28;20048;-78
2024/01/25 02:45:17;;;;;;;27.85;4.43;;;6.40;99.90;;;;;;5019464;28;20128;-77
2024/01/25 02:47:43;;;;;;;33.60;5.22;;;6.40;99.90;;;;;;5017544;28;20125;-77
2024/01/25 02:50:09;;;;;;;29.58;4.95;;;6.40;99.90;;;;;;4996780;28;20045;-77
2024/01/25 02:52:34;;;;;;;27.80;4.07;;;6.40;99.90;;;;;;4993434;28;20065;-77
2024/01/25 02:55:00;;;;;;;28.60;4.93;;;6.40;99.90;;;;;;4996361;28;20284;-78
2024/01/25 02:57:26;;;;;;;26.27;4.03;;;6.30;99.90;;;;;;5017450;28;21348;-77
2024/01/25 02:59:51;;;;;;;26.77;4.90;;;6.30;99.90;;;;;;5005632;28;20140;-77
2024/01/25 03:02:19;;;;;;;34.92;5.00;;;6.30;99.90;;;;;;4996664;28;21319;-77
2024/01/25 03:04:45;;;;;;;28.17;4.65;;;6.40;99.90;;;;;;4996257;28;20188;-77
2024/01/25 03:07:11;;;;;;;32.60;5.53;;;6.30;99.90;;;;;;4991235;28;20426;-77
2024/01/25 03:09:37;;;;;;;30.02;5.03;;;6.30;99.90;;;;;;5000894;28;20046;-77
2024/01/25 03:12:03;;;;;;;27.30;5.28;;;6.30;99.90;;;;;;4994145;28;20068;-77
2024/01/25 03:14:28;;;;;;;26.40;4.70;;;6.30;99.90;;;;;;5018945;28;20041;-78
2024/01/25 03:16:54;;;;;;;29.45;5.18;;;6.30;99.90;;;;;;5013631;28;20048;-78
2024/01/25 03:19:20;;;;;;;29.15;5.53;;;6.20;99.90;;;;;;4995278;28;20039;-77
2024/01/25 03:21:45;;;;;;;24.48;4.32;;;6.30;99.90;;;;;;5013236;28;20107;-78
2024/01/25 03:24:11;;;;;;;26.67;5.40;;;6.30;99.90;;;;;;5016861;28;20044;-78
2024/01/25 03:26:37;;;;;;;22.70;4.72;;;6.20;99.90;;;;;;5011725;28;20124;-78
2024/01/25 03:29:02;;;;;;;28.60;5.15;;;6.20;99.90;;;;;;5007978;28;20065;-78
2024/01/25 03:31:28;;;;;;;29.08;5.20;;;6.20;99.90;;;;;;5016872;28;20115;-78
2024/01/25 03:33:53;;;;;;;30.05;5.65;;;6.20;99.90;;;;;;5016934;28;20033;-78
2024/01/25 03:36:19;;;;;;;33.83;4.95;;;6.20;99.90;;;;;;5029164;28;20048;-78
2024/01/25 03:38:45;;;;;;;23.88;4.88;;;6.20;99.90;;;;;;4995326;28;20625;-78
2024/01/25 03:41:10;;;;;;;32.05;5.20;;;6.20;99.90;;;;;;5000991;28;20534;-78
2024/01/25 03:43:36;;;;;;;28.58;4.47;;;6.20;99.90;;;;;;4993183;28;20037;-78
2024/01/25 03:46:02;;;;;;;29.88;5.57;;;6.20;99.90;;;;;;4996548;28;20149;-78
2024/01/25 03:48:28;;;;;;;25.17;3.88;;;6.20;99.90;;;;;;4995064;28;20041;-78
2024/01/25 03:50:57;;;;;;;26.60;4.35;;;6.10;99.90;;;;;;5012443;28;20046;-78
2024/01/25 03:53:23;;;;;;;30.05;4.57;;;6.10;99.90;;;;;;5012045;28;20124;-78
2024/01/25 03:55:49;;;;;;;27.25;5.32;;;6.10;99.90;;;;;;5015595;28;20041;-78
2024/01/25 03:58:18;;;;;;;27.40;4.47;;;6.10;99.90;;;;;;4992238;28;20043;-78
2024/01/25 04:00:44;;;;;;;23.08;4.43;;;6.10;99.90;;;;;;5044759;28;20404;-78
2024/01/25 04:03:10;;;;;;;28.27;4.15;;;6.10;99.90;;;;;;5043802;28;20047;-78
2024/01/25 04:05:36;;;;;;;32.10;5.22;;;6.10;99.90;;;;;;5056082;28;20500;-78
2024/01/25 04:08:03;;;;;;;22.38;4.78;;;6.00;99.90;;;;;;5039221;28;20063;-78
2024/01/25 04:10:28;;;;;;;26.25;4.10;;;6.00;99.90;;;;;;5051505;28;20055;-78
2024/01/25 04:12:54;;;;;;;24.00;4.03;;;6.00;99.90;;;;;;5036243;28;20067;-78
2024/01/25 04:15:20;;;;;;;28.85;4.80;;;6.00;99.90;;;;;;5065257;28;20039;-78
2024/01/25 04:17:45;;;;;;;27.92;5.10;;;6.00;99.90;;;;;;5035604;28;20043;-79
2024/01/25 04:20:11;;;;;;;24.15;4.18;;;6.00;99.90;;;;;;5048636;28;20127;-78
2024/01/25 04:22:37;;;;;;;35.45;5.28;;;6.00;99.90;;;;;;5025680;28;20405;-78
2024/01/25 04:25:04;;;;;;;25.67;4.63;;;6.00;99.90;;;;;;5039309;28;20037;-78
2024/01/25 04:27:30;;;;;;;24.08;4.35;;;6.00;99.90;;;;;;5039144;28;20131;-78
2024/01/25 04:29:56;;;;;;;24.52;5.50;;;5.90;99.90;;;;;;5045628;28;20090;-78
2024/01/25 04:32:21;;;;;;;32.05;4.93;;;6.00;99.90;;;;;;5038324;28;20036;-78
2024/01/25 04:34:47;;;;;;;21.23;3.50;;;6.00;99.90;;;;;;5019115;28;20045;-78
2024/01/25 04:37:14;;;;;;;23.80;4.35;;;5.90;99.90;;;;;;5033772;28;20037;-78
2024/01/25 04:39:40;;;;;;;27.85;4.13;;;5.90;99.90;;;;;;5038845;28;20041;-78
2024/01/25 04:42:05;;;;;;;29.02;4.93;;;5.90;99.90;;;;;;5037970;28;20074;-78
2024/01/25 04:44:31;;;;;;;23.00;5.18;;;5.90;99.90;;;;;;5038782;28;20043;-78
2024/01/25 04:46:57;;;;;;;26.75;5.75;;;5.90;99.90;;;;;;5065704;28;20036;-78
2024/01/25 04:49:23;;;;;;;31.83;4.45;;;5.90;99.90;;;;;;5043323;28;20044;-78
2024/01/25 04:51:48;;;;;;;21.48;3.78;;;5.90;99.90;;;;;;5037639;28;20047;-78
2024/01/25 04:54:15;;;;;;;24.60;4.20;;;6.00;99.90;;;;;;5049423;28;20485;-78
2024/01/25 04:56:41;;;;;;;24.30;4.78;;;5.90;99.90;;;;;;5048651;28;20396;-78
2024/01/25 04:59:07;;;;;;;23.77;4.40;;;5.90;99.90;;;;;;5055174;28;20080;-78
2024/01/25 05:01:33;;;;;;;27.60;4.70;;;5.90;99.90;;;;;;5050943;28;20068;-78
2024/01/25 05:03:59;;;;;;;24.75;4.32;;;5.80;99.90;;;;;;5030262;28;20512;-78
2024/01/25 05:06:25;;;;;;;31.35;5.25;;;5.80;99.90;;;;;;5021852;28;20094;-78
2024/01/25 05:08:51;;;;;;;18.35;4.15;;;5.80;99.90;;;;;;5032473;28;20059;-78
2024/01/25 05:11:17;;;;;;;24.85;4.28;;;5.80;99.90;;;;;;5013317;28;20044;-78
2024/01/25 05:13:43;;;;;;;31.00;4.85;;;5.70;99.90;;;;;;5014047;28;20134;-78
2024/01/25 05:16:08;;;;;;;26.55;5.32;;;5.70;99.90;;;;;;5060517;28;20040;-78
2024/01/25 05:18:34;;;;;;;30.67;5.32;;;5.70;99.90;;;;;;5038969;28;20063;-78
2024/01/25 05:21:00;;;;;;;26.50;4.82;;;5.80;99.90;;;;;;5038761;28;20045;-78
2024/01/25 05:23:26;;;;;;;27.52;4.50;;;5.70;99.90;;;;;;5042855;28;20091;-78
2024/01/25 05:25:52;;;;;;;26.45;5.25;;;5.70;99.90;;;;;;5023443;28;20044;-78
2024/01/25 05:28:17;;;;;;;24.48;4.22;;;5.70;99.90;;;;;;5050264;28;20062;-78
2024/01/25 05:30:43;;;;;;;23.67;4.68;;;5.80;99.90;;;;;;5045082;28;20041;-78
2024/01/25 05:33:09;;;;;;;24.80;4.97;;;5.70;99.90;;;;;;5042266;28;20037;-78
2024/01/25 05:35:34;;;;;;;22.58;4.07;;;5.70;99.90;;;;;;5023716;28;20444;-78
2024/01/25 05:38:00;;;;;;;25.50;4.18;;;5.60;99.90;;;;;;5028676;28;20368;-79
2024/01/25 05:40:26;;;;;;;24.88;4.38;;;5.70;99.90;;;;;;5059111;28;20404;-78
2024/01/25 05:42:52;;;;;;;24.58;4.65;;;5.70;99.90;;;;;;5021776;28;20036;-78
2024/01/25 05:45:20;;;;;;;29.98;4.68;;;5.70;99.90;;;;;;5020545;28;20036;-79
2024/01/25 05:47:46;;;;;;;25.80;5.07;;;5.70;99.90;;;;;;5027031;28;20036;-78
2024/01/25 05:50:12;;;;;;;31.42;5.18;;;5.70;99.90;;;;;;5040602;28;20045;-78
2024/01/25 05:52:37;;;;;;;29.30;4.35;;;5.60;99.90;;;;;;5038696;28;20043;-78
2024/01/25 05:55:04;;;;;;;27.42;4.45;;;5.60;99.90;;;;;;5020888;28;20748;-78
2024/01/25 05:57:30;;;;;;;25.23;4.30;;;5.60;99.90;;;;;;5055149;28;20040;-78
2024/01/25 05:59:56;;;;;;;25.67;3.90;;;5.60;99.90;;;;;;5042107;28;20420;-78
2024/01/25 06:02:22;;;;;;;27.83;4.82;;;5.60;99.90;;;;;;5021497;28;21918;-78
2024/01/25 06:04:47;;;;;;;26.70;4.85;;;5.70;99.90;;;;;;5043737;28;20166;-78
2024/01/25 06:07:13;;;;;;;24.58;4.50;;;5.60;99.90;;;;;;5051263;28;20260;-79
2024/01/25 06:09:38;;;;;;;22.73;4.00;;;5.70;99.90;;;;;;5039650;28;20136;-79
2024/01/25 06:12:04;;;;;;;22.65;3.65;;;5.70;99.90;;;;;;5038829;28;20105;-78
2024/01/25 06:14:30;;;;;;;32.80;4.80;;;5.70;99.90;;;;;;5032809;28;20062;-78
2024/01/25 06:16:56;;;;;;;24.73;4.03;;;5.60;99.90;;;;;;5042844;28;20048;-78
2024/01/25 06:19:22;;;;;;;25.20;4.43;;;5.60;99.90;;;;;;5041387;28;20040;-78
2024/01/25 06:21:47;;;;;;;29.15;4.43;;;5.50;99.90;;;;;;5022900;28;20048;-78
2024/01/25 06:24:13;;;;;;;25.15;5.18;;;5.50;99.90;;;;;;5043283;28;20044;-78
2024/01/25 06:26:39;;;;;;;21.98;4.38;;;5.50;99.90;;;;;;5031375;28;20032;-78
2024/01/25 06:29:05;;;;;;;23.63;4.10;;;5.40;99.90;;;;;;5017298;28;20121;-78
2024/01/25 06:31:31;;;;;;;25.35;4.45;;;5.30;99.90;;;;;;5041050;28;20033;-78
2024/01/25 06:33:56;;;;;;;27.13;5.55;;;5.30;99.90;;;;;;5031558;28;20045;-78
2024/01/25 06:36:22;;;;;;;27.42;4.32;;;5.30;99.90;;;;;;5046085;28;20108;-78
2024/01/25 06:38:48;;;;;;;23.20;3.80;;;5.20;99.90;;;;;;5037886;28;20139;-78
2024/01/25 06:41:16;;;;;;;30.00;4.43;;;5.20;99.90;;;;;;5040203;28;20161;-78
2024/01/25 06:43:41;;;;;;;24.40;4.15;;;5.20;99.90;;;;;;5021800;28;20037;-78
2024/01/25 06:46:07;;;;;;;28.85;4.82;;;5.20;99.90;;;;;;5025847;28;20041;-78
2024/01/25 06:48:33;;;;;;;22.75;5.22;;;5.20;99.90;;;;;;5058278;28;20040;-78
2024/01/25 06:51:00;;;;;;;28.75;5.38;;;5.20;99.90;;;;;;5004225;28;20048;-78
2024/01/25 06:53:26;;;;;;;26.55;4.57;;;5.20;99.90;;;;;;5020062;28;20036;-78
2024/01/25 06:55:52;;;;;;;22.90;4.30;;;5.20;99.90;;;;;;5017568;28;20519;-78
2024/01/25 06:58:18;;;;;;;24.10;4.78;;;5.20;99.90;;;;;;5032858;28;20036;-78
2024/01/25 07:00:45;;;;;;;32.40;4.45;;;5.20;99.90;;;;;;5039683;28;20079;-78
2024/01/25 07:03:10;;;;;;;33.95;6.13;;;5.10;99.90;;;;;;5056572;28;20037;-78
2024/01/25 07:05:36;;;;;;;25.88;4.95;;;5.20;99.90;;;;;;5040687;28;20085;-78
2024/01/25 07:08:05;;;;;;;22.10;4.50;;;5.10;99.90;;;;;;5044321;28;20044;-78
2024/01/25 07:10:31;;;;;;;25.95;4.22;;;5.10;99.90;;;;;;5047846;28;20041;-79
2024/01/25 07:12:57;;;;;;;25.48;4.38;;;5.00;99.90;;;;;;5035888;28;20043;-79
2024/01/25 07:15:23;;;;;;;31.67;4.88;;;5.10;99.90;;;;;;5057281;28;20040;-78
2024/01/25 07:17:48;;;;;;;27.80;4.82;;;5.10;99.90;;;;;;5040197;28;20033;-78
2024/01/25 07:20:14;;;;;;;26.73;3.83;;;5.10;99.90;;;;;;5038617;28;20040;-78
2024/01/25 07:22:40;;;;;;;25.83;4.68;;;5.10;99.90;;;;;;5038736;28;20397;-79
2024/01/25 07:25:06;;;;;;;24.80;4.57;;;5.10;99.90;;;;;;5057020;28;20382;-79
2024/01/25 07:27:31;;;;;;;33.72;4.53;;;5.10;99.90;;;;;;5064919;28;20111;-79
2024/01/25 07:29:57;;;;;;;24.42;4.43;;;5.10;99.90;;;;;;5039702;28;20044;-79
2024/01/25 07:32:26;;;;;;;29.50;4.93;;;5.10;99.90;;;;;;5055989;28;20040;-79
2024/01/25 07:34:53;;;;;;;26.95;4.97;;;5.10;99.90;;;;;;5034441;28;20039;-79
2024/01/25 07:37:19;;;;;;;30.77;5.15;;;5.10;99.90;;;;;;5031498;28;20400;-79
2024/01/25 07:39:45;;;;;;;28.45;4.85;;;5.00;99.90;;;;;;5040212;28;20058;-79
2024/01/25 07:42:12;;;;;;;24.13;5.13;;;5.00;99.90;;;;;;5054631;28;20515;-79
2024/01/25 07:44:38;;;;;;;27.40;5.15;;;5.00;99.90;;;;;;5035994;28;20049;-79
2024/01/25 07:47:03;;;;;;;27.00;4.18;;;5.00;99.90;;;;;;5036848;28;20102;-79
2024/01/25 07:49:29;;;;;;;26.92;5.47;;;5.00;99.90;;;;;;5038563;28;20036;-79
2024/01/25 07:51:58;;;;;;;26.33;5.15;;;5.00;99.90;;;;;;5036613;28;20164;-78
2024/01/25 07:54:24;;;;;;;33.50;4.82;;;5.00;99.90;;;;;;5038281;28;20112;-79
2024/01/25 07:56:50;;;;;;;32.20;5.18;;;5.00;99.90;;;;;;5052499;28;20079;-79
2024/01/25 07:59:15;;;;;;;36.53;6.07;;;5.00;99.90;;;;;;5037396;28;20048;-79
2024/01/25 08:01:41;;;;;;;34.10;5.57;;;5.10;99.90;;;;;;5048244;28;20059;-79
2024/01/25 08:04:07;;;;;;;21.30;3.80;;;5.10;99.90;;;;;;5038194;28;20119;-79
2024/01/25 08:06:32;;;;;;;30.73;5.28;;;5.10;99.90;;;;;;5040450;28;20040;-79
2024/01/25 08:08:58;;;;;;;25.23;5.30;;;5.10;99.90;;;;;;5045053;28;20037;-79
2024/01/25 08:11:25;;;;;;;31.30;6.00;;;5.10;99.90;;;;;;5036287;28;20059;-79
2024/01/25 08:13:50;;;;;;;29.45;5.35;;;5.10;99.90;;;;;;5037674;28;20491;-79
2024/01/25 08:16:19;;;;;;;24.33;4.47;;;5.10;99.90;;;;;;5042342;28;20032;-79
2024/01/25 08:18:48;;;;;;;28.50;5.07;;;5.10;99.90;;;;;;5028463;28;20028;-79
2024/01/25 08:21:14;;;;;;;28.95;5.72;;;5.10;99.90;;;;;;5030135;28;20041;-79
2024/01/25 08:23:40;;;;;;;30.25;5.28;;;5.20;99.90;;;;;;5051905;28;20541;-79
2024/01/25 08:26:09;;;;;;;28.52;4.53;;;5.20;99.90;;;;;;5043801;28;20044;-79
2024/01/25 08:28:43;;;;;;;30.58;5.22;;;5.20;99.90;;;;;;5037686;28;20473;-79
2024/01/25 08:31:08;;;;;;;23.25;4.68;;;5.20;99.90;;;;;;5036936;28;20043;-79
2024/01/25 08:33:34;;;;;;;30.77;4.78;;;5.20;99.90;;;;;;5041536;28;20412;-79
2024/01/25 08:36:00;;;;;;;20.70;4.57;;;5.20;99.90;;;;;;5047405;28;20029;-79
2024/01/25 08:38:25;;;;;;;28.42;5.38;;;5.30;99.90;;;;;;5048051;28;20071;-79
2024/01/25 08:40:51;;;;;;;25.70;4.40;;;5.30;99.90;;;;;;5027296;28;20036;-79
2024/01/25 08:43:17;;;;;;;35.88;7.28;;;5.30;99.90;;;;;;5031693;28;20047;-79
2024/01/25 08:45:43;;;;;;;26.30;4.60;;;5.30;99.90;;;;;;5069989;28;20071;-79
2024/01/25 08:48:09;;;;;;;25.20;5.13;;;5.30;99.90;;;;;;5056916;28;20068;-79
2024/01/25 08:50:35;;;;;;;29.55;4.93;;;5.30;99.90;;;;;;5051333;28;20467;-79
2024/01/25 08:53:01;;;;;;;34.97;5.03;;;5.40;99.90;;;;;;5047687;28;20037;-79
2024/01/25 08:55:27;;;;;;;27.13;5.07;;;5.40;99.90;;;;;;5053705;28;20036;-79
2024/01/25 08:57:53;;;;;;;28.38;5.50;;;5.40;99.90;;;;;;5036743;28;20116;-79
2024/01/25 09:00:19;;;;;;;29.67;5.13;;;5.50;99.90;;;;;;5061070;28;20078;-80
2024/01/25 09:02:44;;;;;;;26.60;5.05;;;5.50;99.90;;;;;;5052725;28;20066;-79
2024/01/25 09:05:10;;;;;;;29.92;4.45;;;5.50;99.90;;;;;;5035501;28;20044;-79
2024/01/25 09:07:37;;;;;;;28.58;5.00;;;5.50;99.90;;;;;;5052563;28;20361;-79
2024/01/25 09:10:04;;;;;;;26.98;6.35;;;5.60;99.90;;;;;;5043230;28;20452;-79
2024/01/25 09:12:30;;;;;;;30.23;5.75;;;5.60;99.90;;;;;;5031148;28;20037;-79
2024/01/25 09:14:56;;;;;;;30.63;4.85;;;5.60;99.90;;;;;;5045734;28;20063;-80
2024/01/25 09:17:22;;;;;;;30.15;6.00;;;5.60;99.90;;;;;;5034767;28;20111;-80
2024/01/25 09:19:49;;;;;;;31.73;5.13;;;5.70;99.90;;;;;;5035126;28;20094;-79
2024/01/25 09:22:17;;;;;;;29.77;5.85;;;5.70;99.90;;;;;;5052795;28;20097;-79
2024/01/25 09:24:43;;;;;;;29.95;5.90;;;5.80;99.90;;;;;;5052475;28;20093;-79
2024/01/25 09:27:09;;;;;;;26.52;4.68;;;5.80;99.90;;;;;;5027886;28;20045;-79
2024/01/25 09:29:34;;;;;;;32.85;6.15;;;5.80;99.90;;;;;;5057896;28;20028;-79
2024/01/25 09:32:00;;;;;;;33.13;5.35;;;5.90;99.90;;;;;;5052943;28;20566;-79
2024/01/25 09:34:26;;;;;;;30.40;5.50;;;5.90;99.90;;;;;;5032877;28;20033;-79
2024/01/25 09:36:52;;;;;;;27.15;4.50;;;5.90;99.90;;;;;;5052035;28;20392;-79
2024/01/25 09:39:17;;;;;;;24.55;5.30;;;5.90;99.90;;;;;;5052823;28;20501;-79
2024/01/25 09:41:43;;;;;;;26.80;5.75;;;6.00;99.90;;;;;;5041191;28;20101;-79
2024/01/25 09:44:10;;;;;;;30.67;6.22;;;6.00;99.90;;;;;;5036386;28;20123;-79
2024/01/25 09:46:37;;;;;;;30.15;5.57;;;6.00;99.90;;;;;;5049237;28;20416;-79
2024/01/25 09:49:03;;;;;;;30.05;5.38;;;6.00;99.90;;;;;;5035315;28;20091;-79
2024/01/25 09:51:42;;;;;;;30.38;5.95;;;6.00;99.90;;;;;;5046157;28;20060;-79
2024/01/25 09:54:08;;;;;;;32.13;5.95;;;6.10;99.90;;;;;;5057159;28;20042;-79
2024/01/25 09:56:34;;;;;;;27.83;5.07;;;6.10;99.90;;;;;;5041620;28;20036;-79
2024/01/25 09:59:01;;;;;;;30.83;5.55;;;6.10;99.90;;;;;;5034365;28;20132;-79
2024/01/25 10:01:27;;;;;;;29.20;5.18;;;6.10;99.90;;;;;;5055884;28;20037;-79
2024/01/25 10:03:55;;;;;;;24.98;4.97;;;6.10;99.90;;;;;;5055954;28;20040;-79
2024/01/25 10:06:22;;;;;;;31.40;5.32;;;6.20;99.90;;;;;;5038640;28;20032;-79
2024/01/25 10:08:48;;;;;;;23.15;4.85;;;6.20;99.90;;;;;;5056959;28;20040;-79
2024/01/25 10:11:17;;;;;;;26.23;5.38;;;6.20;99.90;;;;;;5039869;28;20067;-79
2024/01/25 10:13:44;;;;;;;28.67;5.05;;;6.20;99.90;;;;;;5050882;28;20040;-79
2024/01/25 10:16:14;;;;;;;27.85;4.70;;;6.20;99.90;;;;;;5029338;28;20037;-79
2024/01/25 10:18:42;;;;;;;27.08;5.32;;;6.30;99.90;;;;;;5050164;28;20400;-79
2024/01/25 10:21:09;;;;;;;29.17;5.50;;;6.20;99.90;;;;;;5055608;28;20120;-78
2024/01/25 10:23:35;;;;;;;34.53;5.55;;;6.20;99.90;;;;;;5055135;28;20051;-79
2024/01/25 10:26:02;;;;;;;35.72;5.53;;;6.40;99.90;;;;;;5065877;28;20433;-79
2024/01/25 10:28:28;;;;;;;25.73;5.15;;;6.30;99.90;;;;;;5033422;28;20044;-79
2024/01/25 10:30:57;;;;;;;29.20;5.45;;;6.20;99.90;;;;;;5050961;28;20492;-79
2024/01/25 10:33:25;;;;;;;27.13;5.30;;;6.30;99.90;;;;;;5036241;28;20503;-79
2024/01/25 10:36:01;;;;;;;29.83;5.25;;;6.30;99.90;;;;;;5029074;28;20752;-79
2024/01/25 10:38:37;;;;;;;25.20;5.50;;;6.40;99.90;;;;;;5038233;28;20032;-79
2024/01/25 10:41:04;;;;;;;24.83;5.45;;;6.50;99.90;;;;;;5055158;28;20044;-79
2024/01/25 10:43:30;;;;;;;31.95;6.35;;;6.60;99.90;;;;;;5031634;28;20504;-78
2024/01/25 10:45:58;;;;;;;24.83;5.20;;;6.70;99.90;;;;;;5036626;28;20033;-78
2024/01/25 10:48:24;;;;;;;28.60;5.70;;;6.80;99.90;;;;;;5053620;28;20044;-78
2024/01/25 10:50:50;;;;;;;38.22;7.00;;;6.90;99.90;;;;;;5031781;28;20038;-78
2024/01/25 10:53:17;;;;;;;28.60;5.15;;;7.00;99.90;;;;;;5027741;28;20041;-78
2024/01/25 10:55:44;;;;;;;29.58;6.47;;;7.00;99.90;;;;;;5020720;28;20067;-78
2024/01/25 10:58:15;;;;;;;28.08;5.57;;;7.10;99.90;;;;;;5027379;28;20043;-78
2024/01/25 11:00:41;;;;;;;31.30;7.28;;;7.20;99.90;;;;;;5031883;28;20048;-79
2024/01/25 11:03:09;;;;;;;34.63;6.22;;;7.10;99.90;;;;;;5026601;28;20102;-78
2024/01/25 11:05:35;;;;;;;29.85;5.53;;;7.20;99.90;;;;;;5030738;28;20047;-78
2024/01/25 11:08:01;;;;;;;29.23;5.30;;;7.20;99.90;;;;;;5048774;28;20064;-79
2024/01/25 11:10:27;;;;;;;25.20;4.95;;;7.10;99.90;;;;;;5051635;28;20079;-79
2024/01/25 11:12:59;;;;;;;27.45;6.05;;;7.10;99.90;;;;;;5027734;28;20047;-78
2024/01/25 11:15:32;;;;;;;31.77;6.28;;;7.10;99.90;;;;;;5050186;28;20082;-78
2024/01/25 11:17:58;;;;;;;34.20;5.45;;;7.20;99.90;;;;;;5040358;28;20125;-78
2024/01/25 11:20:26;;;;;;;25.50;5.28;;;7.30;99.90;;;;;;5049347;28;20085;-78
2024/01/25 11:22:58;;;;;;;24.67;4.70;;;7.30;99.90;;;;;;5053258;28;20401;-78
2024/01/25 11:25:27;;;;;;;27.95;4.40;;;7.40;99.90;;;;;;5038580;28;20040;-78
2024/01/25 11:27:54;;;;;;;27.35;4.53;;;7.70;99.90;;;;;;5040403;28;20090;-78
2024/01/25 11:30:20;;;;;;;31.02;5.90;;;7.70;99.90;;;;;;5073357;28;20040;-78
2024/01/25 11:32:49;;;;;;;30.10;5.05;;;7.60;99.90;;;;;;5038983;28;20024;-78
2024/01/25 11:35:16;;;;;;;26.08;5.13;;;7.60;99.90;;;;;;5061450;28;20399;-78
2024/01/25 11:37:51;;;;;;;26.70;6.07;;;7.80;99.90;;;;;;5026136;28;20029;-78
2024/01/25 11:40:18;;;;;;;33.88;7.30;;;7.70;99.90;;;;;;5056150;28;20040;-78
2024/01/25 11:42:47;;;;;;;30.90;6.53;;;7.70;99.90;;;;;;5054193;28;20033;-78
2024/01/25 11:45:14;;;;;;;30.95;5.90;;;7.70;99.90;;;;;;5038860;28;20040;-78
2024/01/25 11:47:40;;;;;;;26.73;6.03;;;7.70;99.90;;;;;;5039297;28;20431;-78
2024/01/25 11:50:07;;;;;;;26.88;6.18;;;7.70;99.90;;;;;;5038052;28;20037;-78
2024/01/25 11:52:33;;;;;;;30.58;6.50;;;7.70;99.90;;;;;;5029878;28;20469;-78
2024/01/25 11:55:07;;;;;;;26.48;5.80;;;7.80;99.90;;;;;;5039524;28;20039;-78
2024/01/25 11:57:38;;;;;;;26.98;7.18;;;7.70;99.90;;;;;;5038332;28;20401;-78
2024/01/25 12:00:05;;;;;;;21.90;4.80;;;7.60;99.90;;;;;;5054192;28;20044;-78
2024/01/25 12:02:32;;;;;;;21.05;6.15;;;7.90;99.90;;;;;;5029270;28;20067;-78
2024/01/25 12:04:57;;;;;;;20.83;5.70;;;8.00;99.90;;;;;;5055164;28;20089;-78
2024/01/25 12:07:23;;;;;;;23.73;5.32;;;8.10;99.90;;;;;;5072262;28;20033;-78
2024/01/25 12:10:07;;;;;;;31.45;5.85;;;8.10;99.90;;;;;;5054250;28;20542;-78
2024/01/25 12:12:35;;;;;;;25.23;5.55;;;8.10;99.90;;;;;;5046389;28;20033;-78
2024/01/25 12:15:04;;;;;;;26.63;5.28;;;8.10;99.90;;;;;;5030429;28;20167;-78
2024/01/25 12:17:30;;;;;;;28.98;5.40;;;8.10;99.90;;;;;;5044003;28;20123;-78
2024/01/25 12:19:57;;;;;;;25.33;4.63;;;8.10;99.90;;;;;;5030981;28;20091;-78
2024/01/25 12:22:29;;;;;;;23.60;4.78;;;8.10;99.90;;;;;;5054294;28;20045;-78
2024/01/25 12:24:56;;;;;;;27.08;4.55;;;8.10;99.90;;;;;;5053649;28;20563;-77
2024/01/25 12:27:24;;;;;;;23.58;4.93;;;8.10;99.90;;;;;;5037388;28;20052;-78
2024/01/25 12:29:53;;;;;;;27.70;5.57;;;8.10;99.90;;;;;;5041408;28;20119;-78
2024/01/25 12:32:20;;;;;;;21.55;4.50;;;8.10;99.90;;;;;;5051910;28;20062;-78
2024/01/25 12:34:56;;;;;;;24.33;4.53;;;8.00;99.90;;;;;;5053411;28;20115;-77
2024/01/25 12:37:22;;;;;;;19.48;3.83;;;8.10;99.90;;;;;;5043378;28;20127;-77
2024/01/25 12:39:52;;;;;;;26.13;5.68;;;8.20;99.90;;;;;;5054991;28;20039;-77
2024/01/25 12:42:18;;;;;;;24.77;5.80;;;8.10;99.90;;;;;;5054580;28;20550;-78
2024/01/25 12:44:45;;;;;;;24.25;4.57;;;8.00;99.90;;;;;;5036125;28;20040;-78